Paganini — V2CL8 — position and weather

sailwx.info

Track history (hours):
 
Tides and Currents Weather Stations Pressure Air Temp Water Temp Dewpoint Dewpoint Depression Visibility Wind Speed Wind Dir Waves Ship Positions

Paganini

Last reported at 2016-Feb-06 22:29 UTC. Time now 2016-Feb-09 01:27 UTC.
Position N 38°18' E 012°44'.

Length 90 m; draft 5.7 m.

Type: Cargo ship. MMSI: 305040000.

Date/timePositionNaut miles runAvg speedWind from/ knotsBaromVisibWave heightAir tempDewpointWater temp
2016-Feb-06 22:29N 38°18' E 012°44'1112.0
2016-Feb-06 21:33N 38°18' E 012°59'1211.6
2016-Feb-06 20:33N 38°18' E 013°13'1111.3
2016-Feb-06 19:33N 38°18' E 013°28'1111.5
2016-Feb-06 18:33N 38°18' E 013°42'1211.9
2016-Feb-06 17:33N 38°18' E 013°58'5011.7
2016-Feb-06 13:14N 38°18' E 015°02'811.4
2016-Feb-06 12:30N 38°20' E 015°12'1111.3
2016-Feb-06 11:33N 38°21' E 015°26'13 6.0
2016-Feb-06 09:25N 38°11' E 015°37'  
2016-Feb-04 03:28N 37°37' E 024°08'291 8.8
2016-Feb-02 18:29N 40°45' E 028°56'8 9.0
2016-Feb-02 17:33N 40°45' E 029°07'9 9.1
2016-Feb-02 16:33N 40°45' E 029°19'11 0.2
2016-Jan-31 22:20N 40°46' E 029°33'0 0.0
2016-Jan-31 05:15N 40°46' E 029°33'0 0.0
2016-Jan-30 17:11N 40°46' E 029°33'5 0.3
2016-Jan-30 02:26N 40°46' E 029°27'0 0.0
2016-Jan-30 01:32N 40°46' E 029°27'0 0.0
2016-Jan-30 00:32N 40°46' E 029°27'0 0.0
2016-Jan-29 23:20N 40°46' E 029°27'0 0.0
2016-Jan-29 22:32N 40°46' E 029°27'0 0.0
2016-Jan-29 19:08N 40°46' E 029°27'0 0.0
2016-Jan-29 18:26N 40°46' E 029°27'0 0.0
2016-Jan-29 10:14N 40°46' E 029°27'0 0.0
2016-Jan-29 07:14N 40°46' E 029°26'0 0.0
2016-Jan-29 04:20N 40°46' E 029°26'0 0.0
2016-Jan-29 01:32N 40°46' E 029°26'0 0.0
2016-Jan-28 20:33N 40°46' E 029°27'8 8.2
2016-Jan-28 19:33N 40°43' E 029°16'9 8.7
2016-Jan-28 18:33N 40°42' E 029°05'17 3.1
2016-Jan-28 13:13N 40°25' E 029°05'0 0.0
2016-Jan-28 12:25N 40°25' E 029°05'0 0.0
2016-Jan-28 11:25N 40°25' E 029°05'0 0.0
2016-Jan-28 10:25N 40°25' E 029°05'0 0.0
2016-Jan-28 09:13N 40°25' E 029°05'0 0.0
2016-Jan-28 08:31N 40°25' E 029°05'  
Track history (hours):
 
Tides and Currents Weather Stations Pressure Air Temp Water Temp Dewpoint Dewpoint Depression Visibility Wind Speed Wind Dir Waves Ship Positions

Paganini

Last reported at 2016-Feb-06 22:29 UTC. Time now 2016-Feb-09 01:27 UTC.
Position N 38°18' E 012°44'.

Length 90 m; draft 5.7 m.

Type: Cargo ship. MMSI: 305040000.

Date/timePositionNaut miles runAvg speedWind from/ knotsBaromVisibWave heightAir tempDewpointWater temp
2016-Feb-06 22:29N 38°18' E 012°44'1112.0
2016-Feb-06 21:33N 38°18' E 012°59'1211.6
2016-Feb-06 20:33N 38°18' E 013°13'1111.3
2016-Feb-06 19:33N 38°18' E 013°28'1111.5
2016-Feb-06 18:33N 38°18' E 013°42'1211.9
2016-Feb-06 17:33N 38°18' E 013°58'5011.7
2016-Feb-06 13:14N 38°18' E 015°02'811.4
2016-Feb-06 12:30N 38°20' E 015°12'1111.3
2016-Feb-06 11:33N 38°21' E 015°26'13 6.0
2016-Feb-06 09:25N 38°11' E 015°37'  
2016-Feb-04 03:28N 37°37' E 024°08'291 8.8
2016-Feb-02 18:29N 40°45' E 028°56'8 9.0
2016-Feb-02 17:33N 40°45' E 029°07'9 9.1
2016-Feb-02 16:33N 40°45' E 029°19'11 0.2
2016-Jan-31 22:20N 40°46' E 029°33'0 0.0
2016-Jan-31 05:15N 40°46' E 029°33'0 0.0
2016-Jan-30 17:11N 40°46' E 029°33'5 0.3
2016-Jan-30 02:26N 40°46' E 029°27'0 0.0
2016-Jan-30 01:32N 40°46' E 029°27'0 0.0
2016-Jan-30 00:32N 40°46' E 029°27'0 0.0
2016-Jan-29 23:20N 40°46' E 029°27'0 0.0
2016-Jan-29 22:32N 40°46' E 029°27'0 0.0
2016-Jan-29 19:08N 40°46' E 029°27'0 0.0
2016-Jan-29 18:26N 40°46' E 029°27'0 0.0
2016-Jan-29 10:14N 40°46' E 029°27'0 0.0
2016-Jan-29 07:14N 40°46' E 029°26'0 0.0
2016-Jan-29 04:20N 40°46' E 029°26'0 0.0
2016-Jan-29 01:32N 40°46' E 029°26'0 0.0
2016-Jan-28 20:33N 40°46' E 029°27'8 8.2
2016-Jan-28 19:33N 40°43' E 029°16'9 8.7
2016-Jan-28 18:33N 40°42' E 029°05'17 3.1
2016-Jan-28 13:13N 40°25' E 029°05'0 0.0
2016-Jan-28 12:25N 40°25' E 029°05'0 0.0
2016-Jan-28 11:25N 40°25' E 029°05'0 0.0
2016-Jan-28 10:25N 40°25' E 029°05'0 0.0
2016-Jan-28 09:13N 40°25' E 029°05'0 0.0
2016-Jan-28 08:31N 40°25' E 029°05'  

Dump ship's entire track history